Buckland Airport Buckland US
ICAO: PABL
IATA:
Category: Medium
Scheduled Services:

Elevation: 31 ft
TransAlt. 18000 ft.

Airport Communications:
AWOS 3:135.15
ANCHORAGE APP/DEP:119.2
CTAF:122.9
KOTZEBUE RDO:122.3

PABL Zoom In..

If you have problems with the map follow the link
https://www.worldairports.se/pages/airport.php?
ICAO=PABL

Runways:

(A) RW 11 length 3200 ft width 75 ft
---- / hdg 107

(B) RW 29 length 3200 ft width 75 ft
---- / hdg 287

Location; PABL
Day. 12 / Time. 06.56 Zulu
* Altimeter: 29.54
* Temperature: -16° c. -3.2°f.
* Wind from: 080° Speed 04 kn.
Dewpoint: -18° c.
Visibility: 10 Statute Miles.
Clouds: Clear (automated report).

PABL 120656Z AUTO 08004KT 10SM CLR M16/M18 A2954 RMK AO2 SLP005 T11611178 FZRANO


Wind From 080°
Speed 04 kn.

 
 
jpsmedia worldairports.se 2019   terms of use